Time;durP1;ratioP1;P1;durP2;ratioP2;P2;SDS_P1;SDS_P2;PMS_P1;PMS_P2;Temp;Humidity;BMP_temperature;BMP_pressure;BME280_temperature;BME280_humidity;BME280_pressure;Samples;Min_cycle;Max_cycle;Signal;HPM_P1;HPM_P2
2022/02/11 00:07:56;;;;;;;14.85;4.38;;;3.70;99.90;;;;;;4934211;28;20514;-71
2022/02/11 00:10:24;;;;;;;15.15;5.40;;;3.70;99.90;;;;;;4924008;28;20060;-71
2022/02/11 00:12:50;;;;;;;14.95;4.72;;;3.80;99.90;;;;;;4914153;28;20048;-71
2022/02/11 00:18:00;;;;;;;17.23;4.72;;;3.80;99.90;;;;;;4935332;28;20082;-71
2022/02/11 00:20:27;;;;;;;10.20;4.45;;;3.80;99.90;;;;;;4905998;28;20047;-71
2022/02/11 00:22:53;;;;;;;15.40;4.90;;;3.90;99.90;;;;;;4935839;28;20075;-71
2022/02/11 00:25:20;;;;;;;13.60;4.35;;;4.00;99.90;;;;;;4946107;28;20055;-70
2022/02/11 00:31:04;;;;;;;10.52;3.60;;;4.00;99.90;;;;;;4949400;28;20060;-72
2022/02/11 00:33:32;;;;;;;10.00;3.60;;;4.10;99.90;;;;;;4915262;29;20080;-71
2022/02/11 00:36:07;;;;;;;12.20;3.83;;;4.10;99.90;;;;;;4917614;28;20349;-70
2022/02/11 00:39:00;;;;;;;11.75;4.18;;;4.20;99.90;;;;;;4903204;28;20135;-71
2022/02/11 00:47:09;;;;;;;11.85;3.97;;;4.30;99.90;;;;;;4916588;29;20071;-71
2022/02/11 01:06:09;;;;;;;9.73;3.58;;;4.40;99.90;;;;;;4901235;28;20052;-71
2022/02/11 01:08:35;;;;;;;17.27;4.13;;;4.30;99.90;;;;;;4904671;28;20060;-71
2022/02/11 01:11:02;;;;;;;12.27;3.28;;;4.30;99.90;;;;;;4935336;28;20056;-71
2022/02/11 01:13:28;;;;;;;11.27;3.33;;;4.30;99.90;;;;;;4931891;29;20499;-71
2022/02/11 01:16:07;;;;;;;9.73;3.25;;;4.30;99.90;;;;;;4905539;29;20114;-71
2022/02/11 01:18:33;;;;;;;13.55;3.50;;;4.20;99.90;;;;;;4920397;29;20083;-71
2022/02/11 01:21:09;;;;;;;15.38;3.83;;;4.20;99.90;;;;;;4910003;28;20044;-70
2022/02/11 01:26:20;;;;;;;16.85;3.85;;;4.10;99.90;;;;;;4913856;28;20055;-71
2022/02/11 01:37:05;;;;;;;14.13;3.55;;;4.00;99.90;;;;;;4918253;28;20055;-71
2022/02/11 01:51:34;;;;;;;13.15;3.00;;;4.00;99.90;;;;;;4921149;28;19923;-62
2022/02/11 01:56:49;;;;;;;15.05;3.53;;;4.10;99.90;;;;;;4930210;28;20044;-62
2022/02/11 02:12:33;;;;;;;12.23;3.38;;;4.20;99.90;;;;;;4941345;28;20080;-62
2022/02/11 02:24:30;;;;;;;;;;;4.20;99.90;;;;;;4943855;28;20056;-71
2022/02/11 02:34:59;;;;;;;17.58;3.97;;;4.20;99.90;;;;;;4921688;28;20503;-70
2022/02/11 02:58:26;;;;;;;14.02;3.83;;;4.30;99.90;;;;;;4904535;28;20055;-70
2022/02/11 03:15:05;;;;;;;15.60;3.28;;;4.40;99.90;;;;;;4939201;28;20056;-72
2022/02/11 04:55:17;;;;;;;14.02;2.80;;;5.00;99.90;;;;;;4927839;28;20056;-61
2022/02/11 05:00:28;;;;;;;13.80;2.83;;;5.00;99.90;;;;;;4918353;28;20044;-61
2022/02/11 05:02:57;;;;;;;16.10;3.47;;;4.90;99.90;;;;;;4933855;28;20436;-61
2022/02/11 05:05:24;;;;;;;15.60;3.35;;;4.90;99.90;;;;;;4916787;28;20056;-62
2022/02/11 05:07:50;;;;;;;14.93;2.65;;;4.90;99.90;;;;;;4914133;29;20055;-61
2022/02/11 05:10:19;;;;;;;18.65;4.57;;;4.80;99.90;;;;;;4931560;28;20135;-61
2022/02/11 05:12:45;;;;;;;17.02;3.25;;;4.80;99.90;;;;;;4937457;28;20091;-61
2022/02/11 05:15:12;;;;;;;20.55;3.03;;;4.80;99.90;;;;;;4944353;28;20140;-70
2022/02/11 05:17:40;;;;;;;10.05;2.65;;;4.80;99.90;;;;;;4940903;28;20587;-61
2022/02/11 05:20:08;;;;;;;13.80;2.97;;;4.70;99.90;;;;;;4923076;28;20065;-61
2022/02/11 05:22:35;;;;;;;14.88;3.45;;;4.70;99.90;;;;;;4943498;28;20470;-61
2022/02/11 05:25:02;;;;;;;12.82;2.33;;;4.70;99.90;;;;;;4918117;28;20048;-62
2022/02/11 05:27:28;;;;;;;15.02;3.13;;;4.70;99.90;;;;;;4907784;29;20114;-61
2022/02/11 05:29:54;;;;;;;14.65;2.00;;;4.60;99.90;;;;;;4895175;28;20067;-62
2022/02/11 05:32:20;;;;;;;12.40;2.75;;;4.70;99.90;;;;;;4917721;28;20055;-61
2022/02/11 05:34:46;;;;;;;15.30;2.67;;;4.70;99.90;;;;;;4926084;28;20554;-61
2022/02/11 05:37:12;;;;;;;18.83;2.75;;;4.60;99.90;;;;;;4942264;28;20107;-70
2022/02/11 05:39:39;;;;;;;15.75;3.00;;;4.60;99.90;;;;;;4922152;28;20129;-70
2022/02/11 05:42:05;;;;;;;15.10;2.75;;;4.60;99.90;;;;;;4947190;28;20102;-70
2022/02/11 05:44:31;;;;;;;18.58;3.47;;;4.60;99.90;;;;;;4908918;28;20389;-70
2022/02/11 05:46:57;;;;;;;15.43;3.10;;;4.60;99.90;;;;;;4923215;28;20086;-70
2022/02/11 05:49:23;;;;;;;17.02;2.88;;;4.70;99.90;;;;;;4943841;28;20139;-69
2022/02/11 05:51:49;;;;;;;13.95;3.30;;;4.70;99.90;;;;;;4918808;29;20109;-71
2022/02/11 05:54:15;;;;;;;15.50;3.05;;;4.70;99.90;;;;;;4917468;28;20418;-71
2022/02/11 05:56:41;;;;;;;14.25;2.60;;;4.70;99.90;;;;;;4926400;29;20052;-71
2022/02/11 05:59:08;;;;;;;15.82;3.00;;;4.70;99.90;;;;;;4905659;28;20035;-71
2022/02/11 06:01:34;;;;;;;15.10;2.97;;;4.70;99.90;;;;;;4951287;28;20158;-70
2022/02/11 06:04:00;;;;;;;17.05;3.50;;;4.70;99.90;;;;;;4932421;28;20587;-69
2022/02/11 06:06:26;;;;;;;22.35;3.50;;;4.80;99.90;;;;;;4923649;29;20055;-68
2022/02/11 06:08:52;;;;;;;20.70;4.00;;;4.70;99.90;;;;;;4952948;28;20083;-59
2022/02/11 06:11:18;;;;;;;15.73;2.80;;;4.70;99.90;;;;;;4922057;28;20047;-59
2022/02/11 06:13:44;;;;;;;23.60;4.07;;;4.80;99.90;;;;;;4932310;28;20056;-62
2022/02/11 06:16:11;;;;;;;15.50;3.28;;;4.80;99.90;;;;;;4954370;28;20504;-59
2022/02/11 06:18:37;;;;;;;16.70;3.55;;;4.80;99.90;;;;;;4908615;28;20086;-59
2022/02/11 06:21:03;;;;;;;15.73;3.35;;;4.80;99.90;;;;;;4938824;28;20067;-59
2022/02/11 06:23:31;;;;;;;14.18;2.92;;;4.80;99.90;;;;;;4963801;28;20055;-68
2022/02/11 06:25:57;;;;;;;14.68;2.70;;;4.80;99.90;;;;;;4926486;28;20064;-69
2022/02/11 06:28:23;;;;;;;17.00;2.95;;;4.80;99.90;;;;;;4920736;28;20052;-68
2022/02/11 06:30:49;;;;;;;13.73;3.78;;;4.70;99.90;;;;;;4923438;28;20158;-68
2022/02/11 06:33:15;;;;;;;16.85;3.30;;;4.70;99.90;;;;;;4922694;28;20047;-68
2022/02/11 06:35:44;;;;;;;13.70;2.97;;;4.70;99.90;;;;;;4938074;28;20572;-68
2022/02/11 06:38:10;;;;;;;19.27;3.75;;;4.70;99.90;;;;;;4921454;28;20044;-68
2022/02/11 06:40:37;;;;;;;12.15;3.28;;;4.70;99.90;;;;;;4937822;28;20106;-68
2022/02/11 06:43:04;;;;;;;14.05;3.10;;;4.70;99.90;;;;;;4932536;29;20051;-70
2022/02/11 06:45:31;;;;;;;17.80;3.58;;;4.70;99.90;;;;;;4946631;28;20212;-71
2022/02/11 06:47:57;;;;;;;11.95;2.97;;;4.70;99.90;;;;;;4918706;28;20114;-70
2022/02/11 06:50:24;;;;;;;18.08;3.05;;;4.70;99.90;;;;;;4919007;28;20125;-70
2022/02/11 06:52:50;;;;;;;17.83;4.00;;;4.70;99.90;;;;;;4936062;28;20052;-70
2022/02/11 06:55:16;;;;;;;17.95;3.25;;;4.70;99.90;;;;;;4915411;28;20417;-70
2022/02/11 06:57:42;;;;;;;16.70;2.95;;;4.70;99.90;;;;;;4911928;28;20248;-69
2022/02/11 07:00:12;;;;;;;15.77;3.33;;;4.60;99.90;;;;;;4939456;28;20517;-71
2022/02/11 07:02:38;;;;;;;17.88;3.28;;;4.60;99.90;;;;;;4942960;28;20194;-70
2022/02/11 07:05:05;;;;;;;15.35;2.80;;;4.60;99.90;;;;;;4943564;28;20065;-70
2022/02/11 07:07:32;;;;;;;19.52;3.80;;;4.60;99.90;;;;;;4963784;28;20054;-71
2022/02/11 07:09:58;;;;;;;14.07;3.05;;;4.60;99.90;;;;;;4959153;28;20972;-71
2022/02/11 07:12:24;;;;;;;19.05;3.42;;;4.60;99.90;;;;;;4987593;28;20045;-72
2022/02/11 07:14:50;;;;;;;14.40;2.60;;;4.60;99.90;;;;;;4948479;28;20392;-71
2022/02/11 07:17:16;;;;;;;17.60;3.15;;;4.60;99.90;;;;;;4928441;28;20098;-71
2022/02/11 07:19:42;;;;;;;11.20;2.88;;;4.50;99.90;;;;;;4981898;28;20052;-69
2022/02/11 07:22:08;;;;;;;13.65;3.08;;;4.40;99.90;;;;;;4900963;28;20051;-67
2022/02/11 07:24:34;;;;;;;11.90;2.50;;;4.40;99.90;;;;;;4979403;28;20114;-69
2022/02/11 07:27:01;;;;;;;16.80;3.40;;;4.40;99.90;;;;;;4918876;28;20130;-69
2022/02/11 07:29:27;;;;;;;18.77;3.17;;;4.40;99.90;;;;;;4926292;28;20155;-69
2022/02/11 07:31:53;;;;;;;14.63;3.03;;;4.40;99.90;;;;;;4914321;28;20066;-69
2022/02/11 07:34:19;;;;;;;26.85;5.85;;;4.50;99.90;;;;;;4909208;28;20073;-68
2022/02/11 07:36:45;;;;;;;21.15;3.40;;;4.50;99.90;;;;;;4964488;28;20085;-69
2022/02/11 07:39:12;;;;;;;13.98;4.38;;;4.60;99.90;;;;;;4953315;28;20036;-68
2022/02/11 07:41:38;;;;;;;15.68;4.07;;;4.60;99.90;;;;;;4937248;28;20051;-68
2022/02/11 07:44:05;;;;;;;16.10;3.67;;;4.60;99.90;;;;;;4954374;28;20486;-68
2022/02/11 07:46:31;;;;;;;16.25;3.55;;;4.70;99.90;;;;;;4944810;28;20048;-71
2022/02/11 07:48:57;;;;;;;14.52;4.07;;;4.80;99.90;;;;;;4920350;28;20100;-71
2022/02/11 07:51:23;;;;;;;15.75;3.90;;;4.70;99.90;;;;;;4983039;28;20149;-66
2022/02/11 07:53:49;;;;;;;22.65;4.43;;;4.80;99.90;;;;;;4935266;28;20367;-68
2022/02/11 07:56:15;;;;;;;12.00;3.25;;;4.80;99.90;;;;;;4924305;28;20059;-70
2022/02/11 07:58:42;;;;;;;14.00;3.40;;;4.80;99.90;;;;;;4952656;28;20075;-71
2022/02/11 08:01:09;;;;;;;18.25;3.72;;;4.80;99.90;;;;;;4960698;28;20043;-71
2022/02/11 08:03:36;;;;;;;22.27;3.85;;;4.80;99.90;;;;;;4918701;28;20091;-71
2022/02/11 08:06:02;;;;;;;18.00;3.83;;;4.80;99.90;;;;;;4933488;28;20055;-71
2022/02/11 08:08:31;;;;;;;19.70;3.75;;;4.80;99.90;;;;;;4951973;28;20044;-71
2022/02/11 08:11:00;;;;;;;19.23;3.85;;;4.70;99.90;;;;;;4952030;28;20054;-70
2022/02/11 08:13:26;;;;;;;18.30;4.20;;;4.80;99.90;;;;;;4937060;28;20047;-71
2022/02/11 08:15:52;;;;;;;18.27;3.83;;;4.80;99.90;;;;;;4941172;28;20067;-71
2022/02/11 08:18:19;;;;;;;16.63;3.58;;;4.80;99.90;;;;;;5008753;28;20094;-68
2022/02/11 08:20:45;;;;;;;24.02;4.07;;;4.90;99.90;;;;;;4936266;28;20177;-70
2022/02/11 08:23:11;;;;;;;17.33;4.90;;;4.80;99.90;;;;;;4903811;28;20043;-69
2022/02/11 08:25:37;;;;;;;18.67;4.15;;;4.90;99.90;;;;;;4920966;28;20054;-71
2022/02/11 08:28:04;;;;;;;22.33;5.07;;;4.90;99.90;;;;;;4923474;28;20059;-71
2022/02/11 08:30:30;;;;;;;17.92;3.78;;;5.10;99.90;;;;;;4924788;28;20434;-63
2022/02/11 08:32:56;;;;;;;21.38;4.80;;;5.10;99.90;;;;;;4956200;28;20582;-62
2022/02/11 08:35:22;;;;;;;17.45;3.90;;;5.10;99.90;;;;;;4947048;28;20047;-63
2022/02/11 08:37:48;;;;;;;18.92;4.13;;;5.00;99.90;;;;;;4954064;28;20114;-61
2022/02/11 08:40:14;;;;;;;22.67;4.97;;;4.90;99.90;;;;;;4928168;28;20039;-70
2022/02/11 08:42:41;;;;;;;21.30;4.70;;;4.90;99.90;;;;;;4916310;28;20514;-70
2022/02/11 08:45:07;;;;;;;20.65;4.55;;;4.80;99.90;;;;;;4913962;28;20043;-67
2022/02/11 08:47:35;;;;;;;22.92;4.05;;;4.80;99.90;;;;;;4963201;28;20053;-61
2022/02/11 08:50:02;;;;;;;25.15;4.40;;;4.80;99.90;;;;;;4910934;28;20104;-61
2022/02/11 08:52:28;;;;;;;21.60;4.72;;;4.70;99.90;;;;;;4959538;28;20054;-61
2022/02/11 08:54:55;;;;;;;28.27;5.47;;;4.70;99.90;;;;;;4947969;28;20039;-69
2022/02/11 08:57:21;;;;;;;18.27;3.60;;;4.70;99.90;;;;;;4947025;28;20055;-63
2022/02/11 08:59:47;;;;;;;15.27;3.78;;;4.70;99.90;;;;;;4964918;28;20051;-70
2022/02/11 09:02:14;;;;;;;16.35;3.83;;;4.70;99.90;;;;;;4963710;28;20130;-70
2022/02/11 09:04:41;;;;;;;12.07;2.55;;;4.80;99.90;;;;;;4953450;28;20090;-62
2022/02/11 09:07:07;;;;;;;15.57;3.75;;;4.90;99.90;;;;;;4921645;28;20047;-61
2022/02/11 09:09:34;;;;;;;14.27;2.70;;;4.90;99.90;;;;;;4964546;28;20113;-62
2022/02/11 09:12:00;;;;;;;12.65;2.85;;;5.00;99.90;;;;;;4973111;28;20049;-62
2022/02/11 09:14:26;;;;;;;12.57;3.05;;;5.20;99.90;;;;;;4936852;28;20052;-63
2022/02/11 09:16:53;;;;;;;14.40;2.88;;;5.30;99.90;;;;;;4942675;28;20063;-61
2022/02/11 09:19:19;;;;;;;13.85;3.78;;;5.30;99.90;;;;;;4942868;28;20059;-61
2022/02/11 09:21:45;;;;;;;11.98;3.00;;;5.30;99.90;;;;;;4905604;28;20083;-61
2022/02/11 09:24:11;;;;;;;11.20;2.55;;;5.30;99.90;;;;;;4934504;28;20055;-61
2022/02/11 09:26:37;;;;;;;15.27;2.97;;;5.30;99.90;;;;;;4936791;28;20135;-62
2022/02/11 09:29:05;;;;;;;15.05;3.58;;;5.30;99.90;;;;;;4921305;28;20056;-62
2022/02/11 09:31:31;;;;;;;13.95;3.28;;;5.30;99.90;;;;;;4946368;28;20103;-62
2022/02/11 09:34:05;;;;;;;10.57;3.17;;;5.20;99.90;;;;;;4918099;28;20048;-63
2022/02/11 09:36:34;;;;;;;16.00;3.38;;;5.20;99.90;;;;;;4951430;28;20710;-61
2022/02/11 09:39:06;;;;;;;17.67;3.83;;;5.10;99.90;;;;;;4916865;29;20427;-62
2022/02/11 09:41:34;;;;;;;17.00;3.35;;;5.00;99.90;;;;;;4961114;28;20061;-60
2022/02/11 09:44:01;;;;;;;16.38;3.35;;;5.30;99.90;;;;;;4937880;28;20048;-62
2022/02/11 09:46:34;;;;;;;13.02;2.85;;;5.90;99.90;;;;;;4931927;28;20736;-62
2022/02/11 09:49:00;;;;;;;13.32;3.30;;;6.30;99.90;;;;;;4939979;28;20569;-62
2022/02/11 09:51:26;;;;;;;20.77;4.70;;;6.50;99.90;;;;;;4917350;28;20059;-62
2022/02/11 09:53:52;;;;;;;18.45;3.85;;;6.70;99.90;;;;;;4896771;29;20047;-62
2022/02/11 09:56:19;;;;;;;13.95;3.05;;;6.60;99.90;;;;;;4920342;29;20426;-61
2022/02/11 09:58:50;;;;;;;20.10;5.65;;;6.70;99.90;;;;;;4971710;28;20055;-62
2022/02/11 10:01:21;;;;;;;12.17;3.20;;;6.70;99.90;;;;;;4903291;29;20397;-62
2022/02/11 10:04:12;;;;;;;20.00;3.63;;;6.60;99.90;;;;;;4911640;28;20139;-62
2022/02/11 10:06:39;;;;;;;15.60;2.95;;;6.80;99.90;;;;;;4937046;28;20070;-62
2022/02/11 10:09:05;;;;;;;16.65;3.72;;;6.90;99.90;;;;;;4900059;29;20470;-62
2022/02/11 10:11:32;;;;;;;21.77;4.60;;;7.20;99.90;;;;;;4905534;28;20329;-61
2022/02/11 10:14:20;;;;;;;14.35;2.97;;;7.20;99.90;;;;;;4927004;28;20664;-61
2022/02/11 10:16:53;;;;;;;15.40;3.80;;;7.10;99.90;;;;;;4917497;28;20047;-61
2022/02/11 10:19:42;;;;;;;18.85;3.47;;;7.10;99.90;;;;;;4949236;28;20455;-62
2022/02/11 10:22:12;;;;;;;19.55;4.82;;;6.90;99.90;;;;;;4930835;28;20048;-63
2022/02/11 10:24:39;;;;;;;17.02;3.67;;;6.90;99.90;;;;;;4945848;28;20127;-61
2022/02/11 10:27:24;;;;;;;20.42;4.57;;;6.80;99.90;;;;;;4921204;29;20159;-62
2022/02/11 10:29:53;;;;;;;17.20;4.00;;;6.90;99.90;;;;;;4929502;28;20067;-61
2022/02/11 10:32:38;;;;;;;18.27;4.55;;;6.80;99.90;;;;;;4941497;28;20054;-62
2022/02/11 10:35:06;;;;;;;25.25;7.38;;;6.80;99.90;;;;;;4912761;28;20060;-63
2022/02/11 10:37:32;;;;;;;12.60;3.70;;;6.90;99.90;;;;;;4928538;29;20068;-62
2022/02/11 10:40:00;;;;;;;17.80;3.85;;;6.90;99.90;;;;;;4920068;28;20048;-62
2022/02/11 10:42:46;;;;;;;17.17;3.92;;;7.00;99.90;;;;;;4935544;28;20815;-62
2022/02/11 10:45:37;;;;;;;17.55;4.25;;;7.00;99.90;;;;;;4957359;28;20040;-63
2022/02/11 10:48:16;;;;;;;20.10;3.65;;;7.10;99.90;;;;;;4961614;28;20052;-61
2022/02/11 10:50:50;;;;;;;16.75;4.13;;;7.30;99.90;;;;;;4910230;28;20055;-61
2022/02/11 10:53:22;;;;;;;13.00;3.63;;;7.50;99.90;;;;;;4922445;28;20071;-62
2022/02/11 10:55:51;;;;;;;14.55;3.10;;;7.40;99.90;;;;;;4943157;28;20047;-66
2022/02/11 10:58:18;;;;;;;19.05;4.15;;;7.40;99.90;;;;;;4954675;28;20609;-65
2022/02/11 11:00:45;;;;;;;18.17;3.33;;;7.40;99.90;;;;;;4935389;28;20653;-65
2022/02/11 11:03:12;;;;;;;19.73;3.65;;;7.40;99.90;;;;;;4921513;28;20130;-66
2022/02/11 11:05:43;;;;;;;13.73;3.65;;;7.40;99.90;;;;;;4926089;28;20588;-66
2022/02/11 11:08:11;;;;;;;17.08;3.38;;;7.40;99.90;;;;;;4915341;29;20636;-66
2022/02/11 11:10:45;;;;;;;18.50;3.80;;;7.40;99.90;;;;;;4917888;29;20051;-67
2022/02/11 11:13:14;;;;;;;14.35;3.55;;;7.60;99.90;;;;;;4925030;29;20051;-66
2022/02/11 11:15:45;;;;;;;19.27;3.25;;;7.80;99.90;;;;;;4934098;29;20549;-66
2022/02/11 11:18:13;;;;;;;18.77;4.13;;;7.90;99.90;;;;;;4914374;29;20047;-66
2022/02/11 11:20:41;;;;;;;14.65;3.00;;;7.90;99.90;;;;;;4905648;28;20765;-67
2022/02/11 11:23:22;;;;;;;20.88;4.38;;;7.90;99.90;;;;;;4922406;28;20083;-66
2022/02/11 11:26:03;;;;;;;20.10;3.70;;;7.70;99.90;;;;;;4961718;28;20053;-66
2022/02/11 11:28:50;;;;;;;17.25;6.32;;;7.60;99.90;;;;;;4914473;28;20133;-67
2022/02/11 11:31:28;;;;;;;14.27;3.90;;;7.50;99.90;;;;;;4992595;28;20715;-66
2022/02/11 11:34:16;;;;;;;16.38;4.55;;;7.30;99.90;;;;;;5024028;28;20046;-67
2022/02/11 11:36:46;;;;;;;14.95;2.72;;;7.10;99.90;;;;;;5010431;28;20145;-67
2022/02/11 11:39:12;;;;;;;12.00;3.20;;;7.00;99.90;;;;;;5012066;28;20212;-67
2022/02/11 11:41:38;;;;;;;17.10;3.53;;;7.00;99.90;;;;;;4998701;28;20367;-63
2022/02/11 11:44:20;;;;;;;19.17;4.57;;;7.00;99.90;;;;;;5012869;28;20053;-64
2022/02/11 11:46:59;;;;;;;16.02;3.60;;;6.90;99.90;;;;;;5018736;28;20473;-63
2022/02/11 11:49:27;;;;;;;17.45;3.75;;;6.80;99.90;;;;;;4999103;28;20072;-63
2022/02/11 11:51:53;;;;;;;15.20;3.10;;;6.80;99.90;;;;;;5006593;28;20509;-63
2022/02/11 11:54:21;;;;;;;16.80;3.08;;;6.80;99.90;;;;;;4978345;28;20510;-63
2022/02/11 11:56:53;;;;;;;16.60;3.90;;;6.70;99.90;;;;;;4983512;28;20085;-64
2022/02/11 11:59:38;;;;;;;12.50;2.33;;;6.80;99.90;;;;;;4992482;28;20513;-63
2022/02/11 12:02:08;;;;;;;19.38;3.90;;;6.90;99.90;;;;;;4984576;28;20155;-63
2022/02/11 12:04:45;;;;;;;12.43;2.78;;;6.90;99.90;;;;;;4997807;28;20089;-62
2022/02/11 12:07:15;;;;;;;12.00;2.75;;;7.00;99.90;;;;;;4985630;28;20049;-63
2022/02/11 12:09:45;;;;;;;17.20;3.63;;;7.10;99.90;;;;;;4990698;28;20046;-62
2022/02/11 12:12:18;;;;;;;18.35;3.10;;;7.00;99.90;;;;;;5014752;28;20077;-64
2022/02/11 12:14:46;;;;;;;16.45;3.53;;;7.00;99.90;;;;;;4998947;28;20065;-62
2022/02/11 12:17:15;;;;;;;14.40;2.90;;;6.90;99.90;;;;;;4986111;28;20049;-63
2022/02/11 12:19:44;;;;;;;14.95;2.65;;;6.90;99.90;;;;;;4968518;28;20711;-63
2022/02/11 12:22:12;;;;;;;14.10;3.53;;;6.90;99.90;;;;;;4999617;28;20046;-63
2022/02/11 12:27:33;;;;;;;16.10;3.40;;;7.00;99.90;;;;;;4996755;28;20054;-63
2022/02/11 12:30:03;;;;;;;13.38;2.88;;;7.10;99.90;;;;;;4941374;28;20063;-63
2022/02/11 12:32:39;;;;;;;20.80;3.28;;;7.20;99.90;;;;;;4879308;29;20055;-69
2022/02/11 12:35:23;;;;;;;11.38;2.88;;;7.30;99.90;;;;;;4885538;29;20067;-67
2022/02/11 12:37:51;;;;;;;14.30;2.97;;;7.30;99.90;;;;;;4899394;28;20440;-67
2022/02/11 12:40:27;;;;;;;10.05;2.33;;;7.30;99.90;;;;;;4877271;28;20052;-63
2022/02/11 12:42:56;;;;;;;14.40;2.78;;;7.30;99.90;;;;;;4887772;29;20053;-61
2022/02/11 12:45:29;;;;;;;9.98;2.55;;;7.30;99.90;;;;;;4898678;28;20060;-61
2022/02/11 12:47:56;;;;;;;17.27;3.92;;;7.10;99.90;;;;;;4883996;29;20052;-62
2022/02/11 12:50:29;;;;;;;15.38;3.05;;;7.10;99.90;;;;;;4888160;29;20047;-63
2022/02/11 12:53:01;;;;;;;13.05;2.63;;;7.00;99.90;;;;;;4870027;28;20396;-62
2022/02/11 12:55:30;;;;;;;14.23;2.47;;;7.00;99.90;;;;;;4873253;28;20072;-64
2022/02/11 12:57:58;;;;;;;10.82;2.40;;;7.40;99.90;;;;;;4868312;29;20048;-67
2022/02/11 13:00:30;;;;;;;7.82;1.77;;;8.00;99.90;;;;;;4888870;29;20044;-64
2022/02/11 13:02:58;;;;;;;14.20;2.38;;;8.00;99.90;;;;;;4892216;29;20527;-62
2022/02/11 13:05:30;;;;;;;11.07;2.45;;;7.80;99.90;;;;;;4870665;29;20070;-67
2022/02/11 13:07:58;;;;;;;11.50;3.15;;;7.60;99.90;;;;;;4854690;29;20095;-63
2022/02/11 13:10:27;;;;;;;13.52;2.17;;;7.60;99.90;;;;;;4890818;29;20496;-63
2022/02/11 13:13:01;;;;;;;9.90;2.13;;;7.60;99.90;;;;;;4871322;29;20060;-65
2022/02/11 13:15:31;;;;;;;11.63;1.88;;;7.70;99.90;;;;;;4874930;28;20075;-66
2022/02/11 13:18:10;;;;;;;12.73;2.45;;;7.70;99.90;;;;;;4906209;29;20056;-65
2022/02/11 13:20:41;;;;;;;8.57;1.67;;;7.50;98.00;;;;;;4881327;29;20094;-66
2022/02/11 13:23:15;;;;;;;12.40;2.57;;;8.20;99.90;;;;;;4897195;29;20416;-66
2022/02/11 13:25:42;;;;;;;7.47;1.60;;;8.90;99.90;;;;;;4900989;28;20123;-66
2022/02/11 13:28:11;;;;;;;10.23;2.28;;;9.90;93.00;;;;;;4902995;29;20111;-66
2022/02/11 13:30:38;;;;;;;8.13;1.85;;;10.20;85.00;;;;;;4920471;28;20133;-66
2022/02/11 13:33:24;;;;;;;12.55;2.85;;;11.40;83.00;;;;;;4908409;28;20573;-66
2022/02/11 13:35:56;;;;;;;10.15;1.80;;;12.00;56.50;;;;;;4927633;28;20570;-66
2022/02/11 13:38:30;;;;;;;10.00;2.45;;;12.40;60.30;;;;;;4921036;28;20135;-66
2022/02/11 13:41:09;;;;;;;7.93;1.75;;;12.90;54.00;;;;;;4921818;28;20048;-66
2022/02/11 13:43:46;;;;;;;9.55;2.17;;;11.70;51.60;;;;;;4924496;28;20151;-66
2022/02/11 13:46:30;;;;;;;8.07;1.52;;;10.40;52.80;;;;;;4942857;28;20071;-65
2022/02/11 13:49:07;;;;;;;9.80;2.47;;;9.50;56.00;;;;;;4904763;29;20062;-67
2022/02/11 13:51:34;;;;;;;10.38;1.98;;;8.90;58.50;;;;;;4920033;28;20102;-64
2022/02/11 13:54:15;;;;;;;12.23;2.28;;;8.70;65.50;;;;;;4941167;28;20059;-66
2022/02/11 13:56:44;;;;;;;8.88;2.10;;;8.40;67.80;;;;;;4916076;29;20056;-64
2022/02/11 13:59:23;;;;;;;8.38;1.80;;;8.10;93.70;;;;;;4919229;29;20548;-64
2022/02/11 14:01:49;;;;;;;10.60;2.75;;;8.00;98.90;;;;;;4905974;29;20380;-64
2022/02/11 14:04:22;;;;;;;12.40;2.22;;;7.80;99.90;;;;;;4992198;28;20052;-64
2022/02/11 14:06:55;;;;;;;12.05;3.00;;;7.60;95.30;;;;;;4940745;28;20558;-64
2022/02/11 14:09:35;;;;;;;9.43;1.98;;;7.50;99.90;;;;;;4932147;28;20059;-64
2022/02/11 14:12:07;;;;;;;11.40;2.13;;;7.50;96.60;;;;;;4934697;28;20136;-64
2022/02/11 14:14:34;;;;;;;;;;;7.40;99.90;;;;;;4913038;29;20070;-66
2022/02/11 14:17:04;;;;;;;12.60;3.10;;;7.30;99.90;;;;;;4942670;28;20167;-66
2022/02/11 14:19:30;;;;;;;13.70;3.15;;;7.30;99.90;;;;;;4943746;28;20117;-64
2022/02/11 14:22:00;;;;;;;10.13;2.45;;;7.40;99.90;;;;;;4954077;28;20045;-63
2022/02/11 14:24:29;;;;;;;8.43;2.20;;;7.30;99.90;;;;;;4914910;29;20054;-64
2022/02/11 14:26:55;;;;;;;13.63;2.90;;;7.40;99.90;;;;;;4950018;28;20228;-64
2022/02/11 14:29:22;;;;;;;14.90;3.00;;;7.60;99.90;;;;;;4927850;28;20157;-64
2022/02/11 14:31:49;;;;;;;13.95;2.50;;;8.50;99.90;;;;;;4949509;28;20058;-64
2022/02/11 14:34:16;;;;;;;15.15;2.53;;;8.60;99.90;;;;;;4916668;28;20055;-64
2022/02/11 14:36:43;;;;;;;11.02;2.10;;;8.50;99.90;;;;;;4965853;28;20047;-64
2022/02/11 14:39:14;;;;;;;18.20;8.55;;;8.00;99.90;;;;;;4928996;28;20484;-63
2022/02/11 14:41:47;;;;;;;10.07;2.50;;;7.60;99.90;;;;;;4936667;28;20052;-63
2022/02/11 14:44:13;;;;;;;11.55;3.05;;;7.40;99.90;;;;;;4923885;28;20303;-63
2022/02/11 14:46:40;;;;;;;13.45;2.85;;;7.30;99.90;;;;;;4934043;28;20475;-63
2022/02/11 14:49:06;;;;;;;10.45;3.15;;;8.40;99.90;;;;;;4902288;28;20094;-63
2022/02/11 14:51:36;;;;;;;13.00;4.03;;;9.50;86.80;;;;;;4929799;28;20064;-66
2022/02/11 14:54:08;;;;;;;13.60;3.35;;;10.70;84.40;;;;;;4916139;28;20247;-64
2022/02/11 14:56:36;;;;;;;9.52;2.45;;;11.70;63.90;;;;;;4927610;28;20105;-64
2022/02/11 14:59:02;;;;;;;9.32;2.00;;;11.60;60.10;;;;;;4902055;28;20056;-64
2022/02/11 15:01:28;;;;;;;12.70;3.30;;;11.90;59.00;;;;;;4872240;29;20050;-64
2022/02/11 15:03:56;;;;;;;15.02;4.28;;;11.10;60.70;;;;;;4939611;28;20075;-64
2022/02/11 15:06:23;;;;;;;15.38;4.20;;;10.20;60.30;;;;;;4919705;28;20059;-63
2022/02/11 15:08:49;;;;;;;12.55;3.45;;;9.50;65.80;;;;;;4910413;29;20055;-64
2022/02/11 15:11:15;;;;;;;9.68;2.70;;;8.90;75.50;;;;;;4914647;28;20056;-63
2022/02/11 15:13:41;;;;;;;10.77;2.67;;;8.50;84.80;;;;;;4929276;28;20063;-64
2022/02/11 15:16:07;;;;;;;10.90;2.83;;;8.00;98.50;;;;;;4910244;28;20063;-64
2022/02/11 15:18:33;;;;;;;13.98;3.15;;;7.90;99.90;;;;;;4919173;28;20048;-65
2022/02/11 15:21:05;;;;;;;12.30;3.45;;;7.50;99.90;;;;;;4930588;28;20105;-65
2022/02/11 15:23:36;;;;;;;7.85;2.20;;;8.00;99.90;;;;;;4921178;28;20462;-65
2022/02/11 15:26:08;;;;;;;9.52;3.42;;;8.30;99.90;;;;;;4928642;29;20154;-64
2022/02/11 15:28:36;;;;;;;;;;;8.40;99.90;;;;;;4905128;28;20060;-64
2022/02/11 15:31:03;;;;;;;12.48;3.55;;;8.20;99.90;;;;;;4913986;28;20009;-65
2022/02/11 15:33:29;;;;;;;14.50;3.03;;;8.00;99.90;;;;;;4912258;28;20108;-65
2022/02/11 15:35:56;;;;;;;16.42;2.65;;;7.90;99.90;;;;;;4928381;28;20760;-64
2022/02/11 15:38:22;;;;;;;13.93;2.90;;;8.50;99.90;;;;;;4965466;28;20343;-65
2022/02/11 15:40:50;;;;;;;14.15;3.03;;;9.10;99.90;;;;;;4934574;28;20047;-65
2022/02/11 15:43:16;;;;;;;10.65;2.70;;;9.70;99.90;;;;;;4900073;28;20044;-66
2022/02/11 15:45:43;;;;;;;15.70;5.57;;;9.90;87.30;;;;;;4910137;28;20059;-65
2022/02/11 15:48:11;;;;;;;9.63;2.42;;;9.90;69.80;;;;;;4909081;28;20525;-65
2022/02/11 15:50:41;;;;;;;13.70;2.28;;;9.60;72.50;;;;;;4913736;28;20044;-65
2022/02/11 15:53:11;;;;;;;13.02;2.47;;;9.20;90.90;;;;;;4924146;29;20048;-65
2022/02/11 15:55:37;;;;;;;10.68;2.47;;;8.70;92.70;;;;;;4893892;29;20178;-65
2022/02/11 15:58:03;;;;;;;13.93;2.38;;;8.10;99.90;;;;;;4939623;28;20055;-65
2022/02/11 16:00:31;;;;;;;12.95;2.67;;;7.70;99.90;;;;;;4893750;28;20081;-65
2022/02/11 16:02:57;;;;;;;10.88;2.22;;;7.40;99.90;;;;;;4959264;28;20043;-65
2022/02/11 16:05:24;;;;;;;14.63;2.83;;;7.20;99.90;;;;;;4920173;28;20396;-65
2022/02/11 16:07:54;;;;;;;13.10;2.45;;;7.00;99.90;;;;;;4958871;28;20055;-66
2022/02/11 16:10:25;;;;;;;12.35;2.25;;;6.90;99.90;;;;;;4914562;28;20047;-65
2022/02/11 16:12:51;;;;;;;10.65;2.58;;;6.70;99.90;;;;;;4908684;28;20051;-65
2022/02/11 16:15:20;;;;;;;11.30;2.45;;;6.60;99.90;;;;;;4931259;28;20446;-65
2022/02/11 16:18:05;;;;;;;15.07;3.38;;;6.50;99.90;;;;;;4920520;28;20058;-66
2022/02/11 16:20:33;;;;;;;17.15;3.65;;;6.20;99.90;;;;;;4944004;28;20057;-65
2022/02/11 16:22:59;;;;;;;10.45;2.60;;;6.10;99.90;;;;;;4980354;28;20049;-66
2022/02/11 16:25:26;;;;;;;11.73;3.58;;;6.00;99.90;;;;;;4931782;28;20051;-65
2022/02/11 16:27:53;;;;;;;15.85;3.78;;;5.80;99.90;;;;;;4960926;28;20553;-65
2022/02/11 16:30:21;;;;;;;14.50;4.45;;;5.70;99.90;;;;;;4944787;28;20753;-65
2022/02/11 16:32:48;;;;;;;16.00;4.13;;;5.60;99.90;;;;;;4964646;28;20079;-65
2022/02/11 16:35:15;;;;;;;13.43;4.07;;;5.50;99.90;;;;;;4932781;28;20049;-65
2022/02/11 16:37:41;;;;;;;12.43;3.70;;;5.40;99.90;;;;;;4922369;28;20908;-66
2022/02/11 16:40:08;;;;;;;14.15;3.88;;;5.30;99.90;;;;;;4947033;28;20055;-65
2022/02/11 16:42:35;;;;;;;14.48;4.28;;;5.20;99.90;;;;;;4978342;28;20507;-66
2022/02/11 16:45:03;;;;;;;12.85;4.63;;;5.10;99.90;;;;;;4948200;28;20050;-65
2022/02/11 16:47:30;;;;;;;14.50;5.22;;;5.00;99.90;;;;;;4951916;28;20067;-66